Terminal Aerodrome Forecast
Issued by NWS

Home | Current Version | Previous Version | Text Only | Print | Product List | Glossary On
Versions: 1 2 3 4 5 6 7 8 9 10 11 12 13 14 15 16 17 18 19 20 21 22 23 24 25 26 27 28 29 30 31 32 33 34 35 36 37 38 39 40 41
000
FTUS41 KRNK 161746
TAFBCB
TAF
KBCB 161746Z 1618/1718 30006KT P6SM BKN020 OVC035
     FM162100 31007KT P6SM SCT028 BKN035
     FM170800 04005KT 6SM BR SCT007 BKN015
     FM171000 00000KT 3SM -DZ BR OVC003
     FM171700 07001KT 5SM -DZ BR SCT003 BKN006=

USA.gov is the U.S. government's official web portal to all federal, state and local government web resources and services.